Saint Pete Beach, FL

5:45 PM EDT on August 31, 2016 (GMT -0400)
Barrier Island community | | Change Station

Elev 10 ft 27.72 °N, 82.74 °W | Updated 1 minute ago

Rain
Rain Mist
75.1 °F
Feels Like 73 °F
N
0.0
Wind Variable Wind from WNW
Gusts 0.0 mph

Today
High -- | Low -- °F
--% Chance of Precip.
Yesterday
High -- | Low -- °F
Precip. -- in
Pressure 29.89 in
Visibility 2.5 miles
Clouds Overcast 3700 ft
Heat Index 73 °F
Dew Point 74 °F
Humidity 97%
Rainfall 6.46 in
Snow Depth Not available.
7:09 AM 7:52 PM
Waning Crescent, 0% visible
SPECI KSPG 312136Z 24007KT 2 1/2SM RA BR OVC037 24/23 A2989 RMK AO2 P0028 T02440233
Pressure 29.89 in
Visibility 2.5 miles
Clouds Overcast 3700 ft
Heat Index 73 °F
Dew Point 74 °F
Humidity 97%
Rainfall 6.46 in
Snow Depth Not available.
7:09 AM 7:52 PM
Waning Crescent, 0% visible
SPECI KSPG 312136Z 24007KT 2 1/2SM RA BR OVC037 24/23 A2989 RMK AO2 P0028 T02440233

10-Day Weather Forecast

Almanac

Astronomy

Aug. 31, 2016 Rise Set
Actual Time
Civil Twilight
Nautical Twilight
Astronomical Twilight
Moon
Length of Visible Light
Length of Day
Tomorrow will be .
, % of the Moon is Illuminated

Today's Extremes

State Highs State Lows

Community

WunderPhotos

Upload Photos

1,936,189 photos uploaded!

WunderBlog® & News

Nearby

Air Quality

  Air Quality AQ Index Pollutant
Not available.

Snow Depth

Station Depth Elevation

Earthquake Activity

City Distance Mag. Time & Date
Minimum magnitude displayed is 2.5.

Coastal Water Temperatures

Place Temperature

Stations

Nearby Weather Stations

Station Location Temp. Windchill Dew Point Humidity Wind Precip. Elev Updated Type
                   

Watches & Warnings

There are currently no watches in effect.